sensor_id;sensor_type;location;lat;lon;timestamp;pressure;altitude;pressure_sealevel;temperature;humidity
70434;BME280;57876;47.792;12.960;2023-06-22T00:00:36;96992.94;;;18.25;54.20
70434;BME280;57876;47.792;12.960;2023-06-22T00:03:01;96997.88;;;18.32;54.23
70434;BME280;57876;47.792;12.960;2023-06-22T00:05:25;96993.22;;;18.33;54.11
70434;BME280;57876;47.792;12.960;2023-06-22T00:07:50;96966.03;;;18.27;54.32
70434;BME280;57876;47.792;12.960;2023-06-22T00:10:17;96947.56;;;18.16;54.33
70434;BME280;57876;47.792;12.960;2023-06-22T00:12:41;96960.88;;;18.26;54.17
70434;BME280;57876;47.792;12.960;2023-06-22T00:15:06;96975.97;;;18.32;54.29
70434;BME280;57876;47.792;12.960;2023-06-22T00:17:31;96965.19;;;18.27;54.19
70434;BME280;57876;47.792;12.960;2023-06-22T00:19:55;96956.72;;;18.20;54.42
70434;BME280;57876;47.792;12.960;2023-06-22T00:22:23;96949.13;;;18.25;54.15
70434;BME280;57876;47.792;12.960;2023-06-22T00:24:52;96951.38;;;18.23;54.08
70434;BME280;57876;47.792;12.960;2023-06-22T00:27:17;96964.22;;;18.32;54.27
70434;BME280;57876;47.792;12.960;2023-06-22T00:29:42;96957.19;;;18.22;54.23
70434;BME280;57876;47.792;12.960;2023-06-22T00:32:06;96960.06;;;18.25;54.24
70434;BME280;57876;47.792;12.960;2023-06-22T00:34:31;96957.63;;;18.33;54.29
70434;BME280;57876;47.792;12.960;2023-06-22T00:36:55;96941.50;;;18.31;54.19
70434;BME280;57876;47.792;12.960;2023-06-22T00:39:20;96932.16;;;18.32;54.20
70434;BME280;57876;47.792;12.960;2023-06-22T00:41:44;96926.06;;;18.26;54.21
70434;BME280;57876;47.792;12.960;2023-06-22T00:44:09;96915.47;;;18.25;54.20
70434;BME280;57876;47.792;12.960;2023-06-22T00:46:34;96918.22;;;18.25;54.25
70434;BME280;57876;47.792;12.960;2023-06-22T00:48:59;96932.16;;;18.32;54.27
70434;BME280;57876;47.792;12.960;2023-06-22T00:51:24;96912.56;;;18.21;54.22
70434;BME280;57876;47.792;12.960;2023-06-22T00:53:49;96932.97;;;18.33;54.00
70434;BME280;57876;47.792;12.960;2023-06-22T00:56:14;96933.31;;;18.31;54.23
70434;BME280;57876;47.792;12.960;2023-06-22T00:58:38;96917.84;;;18.26;54.33
70434;BME280;57876;47.792;12.960;2023-06-22T01:01:05;96924.28;;;18.31;54.31
70434;BME280;57876;47.792;12.960;2023-06-22T01:03:30;96909.19;;;18.24;54.12
70434;BME280;57876;47.792;12.960;2023-06-22T01:06:00;96908.38;;;18.24;54.29
70434;BME280;57876;47.792;12.960;2023-06-22T01:11:17;96884.56;;;18.24;54.29
70434;BME280;57876;47.792;12.960;2023-06-22T01:13:52;96898.50;;;18.32;54.25
70434;BME280;57876;47.792;12.960;2023-06-22T01:16:25;96893.03;;;18.32;54.07
70434;BME280;57876;47.792;12.960;2023-06-22T01:18:52;96887.56;;;18.32;54.20
70434;BME280;57876;47.792;12.960;2023-06-22T01:21:20;96856.41;;;18.15;54.33
70434;BME280;57876;47.792;12.960;2023-06-22T01:24:15;96863.09;;;18.26;54.16
70434;BME280;57876;47.792;12.960;2023-06-22T01:26:57;96882.06;;;18.32;54.40
70434;BME280;57876;47.792;12.960;2023-06-22T01:29:24;96870.88;;;18.24;54.18
70434;BME280;57876;47.792;12.960;2023-06-22T01:31:50;96883.72;;;18.24;54.29
70434;BME280;57876;47.792;12.960;2023-06-22T01:34:17;96881.47;;;18.26;54.12
70434;BME280;57876;47.792;12.960;2023-06-22T01:36:42;96866.19;;;18.25;54.15
70434;BME280;57876;47.792;12.960;2023-06-22T01:39:08;96875.81;;;18.31;54.29
70434;BME280;57876;47.792;12.960;2023-06-22T01:41:36;96859.91;;;18.24;54.23
70434;BME280;57876;47.792;12.960;2023-06-22T01:44:05;96866.44;;;18.32;54.29
70434;BME280;57876;47.792;12.960;2023-06-22T01:46:32;96855.56;;;18.23;54.36
70434;BME280;57876;47.792;12.960;2023-06-22T01:48:57;96849.75;;;18.25;54.12
70434;BME280;57876;47.792;12.960;2023-06-22T01:51:22;96843.63;;;18.28;54.28
70434;BME280;57876;47.792;12.960;2023-06-22T01:53:46;96841.88;;;18.23;54.18
70434;BME280;57876;47.792;12.960;2023-06-22T01:56:12;96847.63;;;18.31;54.23
70434;BME280;57876;47.792;12.960;2023-06-22T01:58:43;96821.97;;;18.14;54.22
70434;BME280;57876;47.792;12.960;2023-06-22T02:01:11;96846.84;;;18.30;54.04
70434;BME280;57876;47.792;12.960;2023-06-22T02:03:48;96830.25;;;18.26;54.33
70434;BME280;57876;47.792;12.960;2023-06-22T02:06:18;96836.88;;;18.25;54.27
70434;BME280;57876;47.792;12.960;2023-06-22T02:08:53;96814.50;;;18.23;54.04
70434;BME280;57876;47.792;12.960;2023-06-22T02:11:19;96811.28;;;18.21;54.16
70434;BME280;57876;47.792;12.960;2023-06-22T02:13:48;96823.19;;;18.25;54.26
70434;BME280;57876;47.792;12.960;2023-06-22T02:16:14;96819.50;;;18.21;54.33
70434;BME280;57876;47.792;12.960;2023-06-22T02:18:46;96842.94;;;18.31;54.21
70434;BME280;57876;47.792;12.960;2023-06-22T02:21:11;96837.47;;;18.31;54.17
70434;BME280;57876;47.792;12.960;2023-06-22T02:23:36;96831.19;;;18.31;54.16
70434;BME280;57876;47.792;12.960;2023-06-22T02:26:02;96798.47;;;18.13;54.32
70434;BME280;57876;47.792;12.960;2023-06-22T02:28:27;96820.25;;;18.31;54.14
70434;BME280;57876;47.792;12.960;2023-06-22T02:30:52;96826.50;;;18.31;54.21
70434;BME280;57876;47.792;12.960;2023-06-22T02:33:16;96824.09;;;18.30;54.25
70434;BME280;57876;47.792;12.960;2023-06-22T02:35:41;96802.44;;;18.24;54.40
70434;BME280;57876;47.792;12.960;2023-06-22T02:38:09;96819.09;;;18.32;54.28
70434;BME280;57876;47.792;12.960;2023-06-22T02:40:34;96806.75;;;18.25;54.32
70434;BME280;57876;47.792;12.960;2023-06-22T02:42:59;96803.06;;;18.21;54.19
70434;BME280;57876;47.792;12.960;2023-06-22T02:45:26;96806.75;;;18.25;54.02
70434;BME280;57876;47.792;12.960;2023-06-22T02:47:51;96786.41;;;18.14;54.11
70434;BME280;57876;47.792;12.960;2023-06-22T02:50:18;96794.66;;;18.26;54.20
70434;BME280;57876;47.792;12.960;2023-06-22T02:52:42;96810.09;;;18.31;54.23
70434;BME280;57876;47.792;12.960;2023-06-22T02:55:07;96796.13;;;18.24;54.17
70434;BME280;57876;47.792;12.960;2023-06-22T02:57:32;96809.28;;;18.31;54.10
70434;BME280;57876;47.792;12.960;2023-06-22T02:59:57;96811.22;;;18.30;54.15
70434;BME280;57876;47.792;12.960;2023-06-22T03:02:21;96808.34;;;18.26;54.21
70434;BME280;57876;47.792;12.960;2023-06-22T03:04:46;96797.75;;;18.25;54.17
70434;BME280;57876;47.792;12.960;2023-06-22T03:07:13;96799.69;;;18.24;54.31
70434;BME280;57876;47.792;12.960;2023-06-22T03:09:37;96815.56;;;18.31;54.25
70434;BME280;57876;47.792;12.960;2023-06-22T03:12:02;96809.00;;;18.23;54.33
70434;BME280;57876;47.792;12.960;2023-06-22T03:14:27;96805.00;;;18.21;54.11
70434;BME280;57876;47.792;12.960;2023-06-22T03:16:51;96813.81;;;18.26;54.08
70434;BME280;57876;47.792;12.960;2023-06-22T03:19:16;96806.47;;;18.18;54.27
70434;BME280;57876;47.792;12.960;2023-06-22T03:21:41;96811.63;;;18.20;54.25
70434;BME280;57876;47.792;12.960;2023-06-22T03:24:06;96832.31;;;18.30;54.28
70434;BME280;57876;47.792;12.960;2023-06-22T03:26:31;96808.09;;;18.19;54.19
70434;BME280;57876;47.792;12.960;2023-06-22T03:28:55;96820.91;;;18.27;54.39
70434;BME280;57876;47.792;12.960;2023-06-22T03:31:20;96802.94;;;18.18;54.27
70434;BME280;57876;47.792;12.960;2023-06-22T03:33:45;96826.25;;;18.24;54.14
70434;BME280;57876;47.792;12.960;2023-06-22T03:36:10;96831.19;;;18.31;54.29
70434;BME280;57876;47.792;12.960;2023-06-22T03:38:34;96827.19;;;18.28;54.52
70434;BME280;57876;47.792;12.960;2023-06-22T03:40:59;96827.84;;;18.25;54.50
70434;BME280;57876;47.792;12.960;2023-06-22T03:43:23;96835.06;;;18.30;54.33
70434;BME280;57876;47.792;12.960;2023-06-22T03:45:48;96837.34;;;18.27;54.42
70434;BME280;57876;47.792;12.960;2023-06-22T03:48:12;96836.19;;;18.29;54.27
70434;BME280;57876;47.792;12.960;2023-06-22T03:53:27;96847.16;;;18.29;54.17
70434;BME280;57876;47.792;12.960;2023-06-22T03:55:52;96838.94;;;18.29;54.09
70434;BME280;57876;47.792;12.960;2023-06-22T03:58:17;96842.16;;;18.31;54.21
70434;BME280;57876;47.792;12.960;2023-06-22T04:00:43;96838.47;;;18.26;54.16
70434;BME280;57876;47.792;12.960;2023-06-22T04:03:07;96836.13;;;18.16;54.19
70434;BME280;57876;47.792;12.960;2023-06-22T04:05:32;96843.94;;;18.26;54.10
70434;BME280;57876;47.792;12.960;2023-06-22T04:07:56;96840.41;;;18.26;54.10
70434;BME280;57876;47.792;12.960;2023-06-22T04:10:21;96846.84;;;18.30;54.19
70434;BME280;57876;47.792;12.960;2023-06-22T04:12:45;96862.91;;;18.32;54.32
70434;BME280;57876;47.792;12.960;2023-06-22T04:15:10;96852.31;;;18.30;54.17
70434;BME280;57876;47.792;12.960;2023-06-22T04:17:36;96846.84;;;18.30;54.15
70434;BME280;57876;47.792;12.960;2023-06-22T04:20:00;96846.47;;;18.32;54.39
70434;BME280;57876;47.792;12.960;2023-06-22T04:22:24;96842.81;;;18.27;54.31
70434;BME280;57876;47.792;12.960;2023-06-22T04:24:49;96848.97;;;18.24;54.25
70434;BME280;57876;47.792;12.960;2023-06-22T04:27:17;96851.94;;;18.32;54.33
70434;BME280;57876;47.792;12.960;2023-06-22T04:29:42;96847.16;;;18.29;54.01
70434;BME280;57876;47.792;12.960;2023-06-22T04:32:12;96849.22;;;18.32;54.35
70434;BME280;57876;47.792;12.960;2023-06-22T04:34:37;96843.75;;;18.32;54.24
70434;BME280;57876;47.792;12.960;2023-06-22T04:37:02;96842.16;;;18.31;54.33
70434;BME280;57876;47.792;12.960;2023-06-22T04:39:26;96843.50;;;18.24;54.17
70434;BME280;57876;47.792;12.960;2023-06-22T04:41:51;96838.47;;;18.26;54.28
70434;BME280;57876;47.792;12.960;2023-06-22T04:44:17;96851.47;;;18.30;54.20
70434;BME280;57876;47.792;12.960;2023-06-22T04:46:48;96845.69;;;18.31;54.19
70434;BME280;57876;47.792;12.960;2023-06-22T04:49:17;96852.75;;;18.32;54.27
70434;BME280;57876;47.792;12.960;2023-06-22T04:51:42;96848.75;;;18.30;54.28
70434;BME280;57876;47.792;12.960;2023-06-22T04:54:07;96855.16;;;18.34;54.12
70434;BME280;57876;47.792;12.960;2023-06-22T04:56:32;96854.38;;;18.33;54.11
70434;BME280;57876;47.792;12.960;2023-06-22T04:58:57;96842.94;;;18.31;54.26
70434;BME280;57876;47.792;12.960;2023-06-22T05:01:21;96841.47;;;18.34;54.19
70434;BME280;57876;47.792;12.960;2023-06-22T05:03:46;96825.56;;;18.27;54.27
70434;BME280;57876;47.792;12.960;2023-06-22T05:06:11;96836.78;;;18.34;54.19
70434;BME280;57876;47.792;12.960;2023-06-22T05:08:35;96836.00;;;18.34;54.18
70434;BME280;57876;47.792;12.960;2023-06-22T05:11:00;96836.00;;;18.34;54.09
70434;BME280;57876;47.792;12.960;2023-06-22T05:13:24;96827.31;;;18.32;54.24
70434;BME280;57876;47.792;12.960;2023-06-22T05:15:50;96832.13;;;18.35;54.11
70434;BME280;57876;47.792;12.960;2023-06-22T05:18:14;96817.03;;;18.29;54.28
70434;BME280;57876;47.792;12.960;2023-06-22T05:20:39;96810.09;;;18.31;54.20
70434;BME280;57876;47.792;12.960;2023-06-22T05:23:03;96820.03;;;18.36;54.25
70434;BME280;57876;47.792;12.960;2023-06-22T05:25:28;96810.41;;;18.30;54.08
70434;BME280;57876;47.792;12.960;2023-06-22T05:27:54;96814.88;;;18.34;54.31
70434;BME280;57876;47.792;12.960;2023-06-22T05:30:18;96817.31;;;18.36;54.09
70434;BME280;57876;47.792;12.960;2023-06-22T05:32:42;96816.97;;;18.37;54.28
70434;BME280;57876;47.792;12.960;2023-06-22T05:35:08;96813.41;;;18.37;54.16
70434;BME280;57876;47.792;12.960;2023-06-22T05:37:33;96804.28;;;18.33;54.32
70434;BME280;57876;47.792;12.960;2023-06-22T05:39:58;96813.41;;;18.37;54.18
70434;BME280;57876;47.792;12.960;2023-06-22T05:42:22;96801.56;;;18.33;54.11
70434;BME280;57876;47.792;12.960;2023-06-22T05:44:47;96811.47;;;18.37;54.18
70434;BME280;57876;47.792;12.960;2023-06-22T05:47:11;96813.09;;;18.38;54.25
70434;BME280;57876;47.792;12.960;2023-06-22T05:49:36;96817.78;;;18.38;54.23
70434;BME280;57876;47.792;12.960;2023-06-22T05:52:00;96813.09;;;18.38;54.18
70434;BME280;57876;47.792;12.960;2023-06-22T05:54:25;96810.22;;;18.35;54.10
70434;BME280;57876;47.792;12.960;2023-06-22T05:56:49;96809.09;;;18.36;54.20
70434;BME280;57876;47.792;12.960;2023-06-22T05:59:14;96807.16;;;18.36;54.13
70434;BME280;57876;47.792;12.960;2023-06-22T06:01:38;96792.59;;;18.23;54.15
70434;BME280;57876;47.792;12.960;2023-06-22T06:04:04;96807.47;;;18.35;54.28
70434;BME280;57876;47.792;12.960;2023-06-22T06:06:28;96803.63;;;18.36;54.20
70434;BME280;57876;47.792;12.960;2023-06-22T06:08:53;96801.66;;;18.36;54.16
70434;BME280;57876;47.792;12.960;2023-06-22T06:11:17;96794.44;;;18.32;54.28
70434;BME280;57876;47.792;12.960;2023-06-22T06:13:41;96800.19;;;18.39;54.12
70434;BME280;57876;47.792;12.960;2023-06-22T06:16:06;96803.63;;;18.36;54.02
70434;BME280;57876;47.792;12.960;2023-06-22T06:18:30;96797.47;;;18.39;54.17
70434;BME280;57876;47.792;12.960;2023-06-22T06:20:55;96805.69;;;18.39;54.11
70434;BME280;57876;47.792;12.960;2023-06-22T06:23:19;96801.34;;;18.38;54.32
70434;BME280;57876;47.792;12.960;2023-06-22T06:25:43;96793.78;;;18.35;54.19
70434;BME280;57876;47.792;12.960;2023-06-22T06:28:08;96798.63;;;18.38;54.12
70434;BME280;57876;47.792;12.960;2023-06-22T06:30:32;96808.09;;;18.40;54.05
70434;BME280;57876;47.792;12.960;2023-06-22T06:32:57;96808.88;;;18.41;54.10
70434;BME280;57876;47.792;12.960;2023-06-22T06:35:21;96803.41;;;18.41;54.15
70434;BME280;57876;47.792;12.960;2023-06-22T06:37:48;96801.00;;;18.39;54.07
70434;BME280;57876;47.792;12.960;2023-06-22T06:40:14;96792.47;;;18.41;54.24
70434;BME280;57876;47.792;12.960;2023-06-22T06:42:44;96797.59;;;18.42;54.13
70434;BME280;57876;47.792;12.960;2023-06-22T06:45:10;96794.41;;;18.40;54.11
70434;BME280;57876;47.792;12.960;2023-06-22T06:47:34;96794.84;;;18.42;54.25
70434;BME280;57876;47.792;12.960;2023-06-22T06:49:59;96779.28;;;18.34;54.07
70434;BME280;57876;47.792;12.960;2023-06-22T06:52:24;96788.56;;;18.42;54.17
70434;BME280;57876;47.792;12.960;2023-06-22T06:54:48;96785.50;;;18.43;54.11
70434;BME280;57876;47.792;12.960;2023-06-22T06:57:12;96782.09;;;18.46;53.81
70434;BME280;57876;47.792;12.960;2023-06-22T06:59:37;96778.41;;;18.42;54.19
70434;BME280;57876;47.792;12.960;2023-06-22T07:02:02;96777.41;;;18.47;54.01
70434;BME280;57876;47.792;12.960;2023-06-22T07:04:26;96768.50;;;18.38;53.99
70434;BME280;57876;47.792;12.960;2023-06-22T07:06:51;96770.09;;;18.39;53.98
70434;BME280;57876;47.792;12.960;2023-06-22T07:09:15;96776.28;;;18.48;54.01
70434;BME280;57876;47.792;12.960;2023-06-22T07:11:39;96769.19;;;18.47;54.01
70434;BME280;57876;47.792;12.960;2023-06-22T07:14:04;96746.59;;;18.38;53.95
70434;BME280;57876;47.792;12.960;2023-06-22T07:16:28;96763.41;;;18.48;53.80
70434;BME280;57876;47.792;12.960;2023-06-22T07:18:54;96747.38;;;18.38;53.90
70434;BME280;57876;47.792;12.960;2023-06-22T07:21:18;96758.25;;;18.47;53.90
70434;BME280;57876;47.792;12.960;2023-06-22T07:23:43;96753.56;;;18.47;53.83
70434;BME280;57876;47.792;12.960;2023-06-22T07:26:07;96770.94;;;18.52;53.96
70434;BME280;57876;47.792;12.960;2023-06-22T07:28:32;96768.53;;;18.50;53.88
70434;BME280;57876;47.792;12.960;2023-06-22T07:31:01;96777.88;;;18.49;53.70
70434;BME280;57876;47.792;12.960;2023-06-22T07:33:25;96778.81;;;18.53;53.85
70434;BME280;57876;47.792;12.960;2023-06-22T07:35:50;96764.19;;;18.49;53.79
70434;BME280;57876;47.792;12.960;2023-06-22T07:38:16;96767.41;;;18.51;54.01
70434;BME280;57876;47.792;12.960;2023-06-22T07:40:40;96768.66;;;18.54;53.82
70434;BME280;57876;47.792;12.960;2023-06-22T07:43:05;96762.38;;;18.53;53.87
70434;BME280;57876;47.792;12.960;2023-06-22T07:45:30;96752.88;;;18.51;53.96
70434;BME280;57876;47.792;12.960;2023-06-22T07:47:54;96758.50;;;18.54;53.89
70434;BME280;57876;47.792;12.960;2023-06-22T07:50:19;96744.34;;;18.52;54.00
70434;BME280;57876;47.792;12.960;2023-06-22T07:52:43;96748.22;;;18.51;53.77
70434;BME280;57876;47.792;12.960;2023-06-22T07:55:08;96749.03;;;18.52;53.88
70434;BME280;57876;47.792;12.960;2023-06-22T07:57:32;96749.81;;;18.52;53.67
70434;BME280;57876;47.792;12.960;2023-06-22T07:59:58;96745.13;;;18.53;53.87
70434;BME280;57876;47.792;12.960;2023-06-22T08:02:23;96743.53;;;18.52;54.10
70434;BME280;57876;47.792;12.960;2023-06-22T08:04:47;96743.66;;;18.55;53.71
70434;BME280;57876;47.792;12.960;2023-06-22T08:07:12;96738.06;;;18.52;53.86
70434;BME280;57876;47.792;12.960;2023-06-22T08:09:36;96747.19;;;18.56;53.66
70434;BME280;57876;47.792;12.960;2023-06-22T08:12:01;96741.50;;;18.48;53.55
70434;BME280;57876;47.792;12.960;2023-06-22T08:14:26;96745.25;;;18.56;53.81
70434;BME280;57876;47.792;12.960;2023-06-22T08:16:51;96743.66;;;18.55;53.94
70434;BME280;57876;47.792;12.960;2023-06-22T08:19:15;96746.41;;;18.55;53.77
70434;BME280;57876;47.792;12.960;2023-06-22T08:21:40;96743.66;;;18.55;53.57
70434;BME280;57876;47.792;12.960;2023-06-22T08:24:04;96726.97;;;18.48;53.79
70434;BME280;57876;47.792;12.960;2023-06-22T08:26:29;96745.25;;;18.56;53.78
70434;BME280;57876;47.792;12.960;2023-06-22T08:28:53;96746.41;;;18.55;53.68
70434;BME280;57876;47.792;12.960;2023-06-22T08:31:18;96737.72;;;18.53;53.76
70434;BME280;57876;47.792;12.960;2023-06-22T08:33:43;96738.19;;;18.55;53.76
70434;BME280;57876;47.792;12.960;2023-06-22T08:36:09;96737.91;;;18.48;53.75
70434;BME280;57876;47.792;12.960;2023-06-22T08:38:35;96734.06;;;18.49;53.71
70434;BME280;57876;47.792;12.960;2023-06-22T08:40:59;96734.06;;;18.49;53.77
70434;BME280;57876;47.792;12.960;2023-06-22T08:43:25;96739.53;;;18.49;53.98
70434;BME280;57876;47.792;12.960;2023-06-22T08:45:49;96743.88;;;18.50;53.78
70434;BME280;57876;47.792;12.960;2023-06-22T08:48:14;96748.88;;;18.48;53.86
70434;BME280;57876;47.792;12.960;2023-06-22T08:50:38;96747.28;;;18.47;53.62
70434;BME280;57876;47.792;12.960;2023-06-22T08:53:04;96745.03;;;18.49;53.71
70434;BME280;57876;47.792;12.960;2023-06-22T08:55:28;96745.34;;;18.47;53.65
70434;BME280;57876;47.792;12.960;2023-06-22T08:57:53;96741.34;;;18.45;53.75
70434;BME280;57876;47.792;12.960;2023-06-22T09:00:18;96734.75;;;18.46;53.85
70434;BME280;57876;47.792;12.960;2023-06-22T09:02:44;96734.38;;;18.47;53.81
70434;BME280;57876;47.792;12.960;2023-06-22T09:05:09;96739.88;;;18.47;53.82
70434;BME280;57876;47.792;12.960;2023-06-22T09:07:33;96733.59;;;18.47;54.01
70434;BME280;57876;47.792;12.960;2023-06-22T09:09:58;96730.53;;;18.48;53.95
70434;BME280;57876;47.792;12.960;2023-06-22T09:12:23;96738.75;;;18.48;53.94
70434;BME280;57876;47.792;12.960;2023-06-22T09:14:50;96736.34;;;18.47;53.79
70434;BME280;57876;47.792;12.960;2023-06-22T09:17:14;96726.06;;;18.44;53.91
70434;BME280;57876;47.792;12.960;2023-06-22T09:19:39;96736.34;;;18.47;53.99
70434;BME280;57876;47.792;12.960;2023-06-22T09:22:04;96727.53;;;18.41;53.98
70434;BME280;57876;47.792;12.960;2023-06-22T09:24:30;96713.03;;;18.41;53.96
70434;BME280;57876;47.792;12.960;2023-06-22T09:26:54;96721.50;;;18.48;53.95
70434;BME280;57876;47.792;12.960;2023-06-22T09:29:19;96701.63;;;18.39;53.79
70434;BME280;57876;47.792;12.960;2023-06-22T09:31:43;96715.91;;;18.44;54.01
70434;BME280;57876;47.792;12.960;2023-06-22T09:34:08;96709.16;;;18.42;53.97
70434;BME280;57876;47.792;12.960;2023-06-22T09:36:33;96701.41;;;18.44;53.86
70434;BME280;57876;47.792;12.960;2023-06-22T09:38:57;96699.00;;;18.42;54.01
70434;BME280;57876;47.792;12.960;2023-06-22T09:41:22;96708.94;;;18.47;53.92
70434;BME280;57876;47.792;12.960;2023-06-22T09:43:47;96702.22;;;18.44;53.83
70434;BME280;57876;47.792;12.960;2023-06-22T09:46:17;96698.00;;;18.47;53.54
70434;BME280;57876;47.792;12.960;2023-06-22T09:48:42;96699.59;;;18.48;53.91
70434;BME280;57876;47.792;12.960;2023-06-22T09:51:07;96700.41;;;18.48;53.86
70434;BME280;57876;47.792;12.960;2023-06-22T09:53:31;96688.03;;;18.42;53.97
70434;BME280;57876;47.792;12.960;2023-06-22T09:55:56;96687.25;;;18.42;53.79
70434;BME280;57876;47.792;12.960;2023-06-22T09:58:21;96688.63;;;18.48;53.95
70434;BME280;57876;47.792;12.960;2023-06-22T10:00:45;96683.16;;;18.48;53.94
70434;BME280;57876;47.792;12.960;2023-06-22T10:03:10;96687.03;;;18.47;53.98
70434;BME280;57876;47.792;12.960;2023-06-22T10:05:34;96675.63;;;18.45;54.09
70434;BME280;57876;47.792;12.960;2023-06-22T10:07:59;96680.28;;;18.44;53.94
70434;BME280;57876;47.792;12.960;2023-06-22T10:10:23;96681.88;;;18.45;53.85
70434;BME280;57876;47.792;12.960;2023-06-22T10:12:55;96684.31;;;18.47;53.90
70434;BME280;57876;47.792;12.960;2023-06-22T10:15:20;96687.03;;;18.47;54.00
70434;BME280;57876;47.792;12.960;2023-06-22T10:17:45;96666.72;;;18.36;54.09
70434;BME280;57876;47.792;12.960;2023-06-22T10:20:09;96670.34;;;18.40;53.78
70434;BME280;57876;47.792;12.960;2023-06-22T10:22:42;96684.78;;;18.49;53.92
70434;BME280;57876;47.792;12.960;2023-06-22T10:25:07;96676.88;;;18.47;53.91
70434;BME280;57876;47.792;12.960;2023-06-22T10:27:31;96678.81;;;18.47;53.82
70434;BME280;57876;47.792;12.960;2023-06-22T10:29:56;96674.13;;;18.47;53.82
70434;BME280;57876;47.792;12.960;2023-06-22T10:32:20;96673.81;;;18.49;53.95
70434;BME280;57876;47.792;12.960;2023-06-22T10:34:45;96669.47;;;18.48;53.90
70434;BME280;57876;47.792;12.960;2023-06-22T10:37:09;96671.06;;;18.49;53.80
70434;BME280;57876;47.792;12.960;2023-06-22T10:39:34;96668.34;;;18.49;53.71
70434;BME280;57876;47.792;12.960;2023-06-22T10:41:59;96652.13;;;18.44;54.08
70434;BME280;57876;47.792;12.960;2023-06-22T10:44:23;96632.59;;;18.33;53.88
70434;BME280;57876;47.792;12.960;2023-06-22T10:46:48;96649.16;;;18.49;53.90
70434;BME280;57876;47.792;12.960;2023-06-22T10:49:12;96644.44;;;18.37;53.98
70434;BME280;57876;47.792;12.960;2023-06-22T10:51:37;96643.44;;;18.42;53.75
70434;BME280;57876;47.792;12.960;2023-06-22T10:54:01;96639.09;;;18.41;53.85
70434;BME280;57876;47.792;12.960;2023-06-22T10:56:26;96626.91;;;18.38;53.89
70434;BME280;57876;47.792;12.960;2023-06-22T10:58:50;96638.75;;;18.42;53.87
70434;BME280;57876;47.792;12.960;2023-06-22T11:01:17;96637.75;;;18.47;53.92
70434;BME280;57876;47.792;12.960;2023-06-22T11:03:42;96627.38;;;18.40;53.77
70434;BME280;57876;47.792;12.960;2023-06-22T11:06:06;96638.06;;;18.45;53.84
70434;BME280;57876;47.792;12.960;2023-06-22T11:08:31;96618.00;;;18.41;53.92
70434;BME280;57876;47.792;12.960;2023-06-22T11:10:55;96603.94;;;18.31;53.85
70434;BME280;57876;47.792;12.960;2023-06-22T11:13:20;96612.84;;;18.40;53.90
70434;BME280;57876;47.792;12.960;2023-06-22T11:15:44;96611.63;;;18.49;53.93
70434;BME280;57876;47.792;12.960;2023-06-22T11:18:09;96612.78;;;18.48;53.67
70434;BME280;57876;47.792;12.960;2023-06-22T11:20:33;96609.56;;;18.46;53.66
70434;BME280;57876;47.792;12.960;2023-06-22T11:23:02;96605.69;;;18.47;53.69
70434;BME280;57876;47.792;12.960;2023-06-22T11:25:27;96606.13;;;18.49;53.86
70434;BME280;57876;47.792;12.960;2023-06-22T11:27:52;96585.25;;;18.45;53.86
70434;BME280;57876;47.792;12.960;2023-06-22T11:30:17;96591.19;;;18.47;53.88
70434;BME280;57876;47.792;12.960;2023-06-22T11:32:42;96589.13;;;18.44;53.82
70434;BME280;57876;47.792;12.960;2023-06-22T11:35:07;96586.88;;;18.46;53.89
70434;BME280;57876;47.792;12.960;2023-06-22T11:37:31;96570.66;;;18.41;53.95
70434;BME280;57876;47.792;12.960;2023-06-22T11:39:56;96574.97;;;18.42;53.79
70434;BME280;57876;47.792;12.960;2023-06-22T11:42:20;96570.19;;;18.39;53.81
70434;BME280;57876;47.792;12.960;2023-06-22T11:44:45;96576.56;;;18.43;53.78
70434;BME280;57876;47.792;12.960;2023-06-22T11:47:10;96569.50;;;18.42;53.75
70434;BME280;57876;47.792;12.960;2023-06-22T11:49:34;96568.59;;;18.38;54.04
70434;BME280;57876;47.792;12.960;2023-06-22T11:51:59;96556.81;;;18.37;53.80
70434;BME280;57876;47.792;12.960;2023-06-22T11:54:23;96579.09;;;18.48;53.74
70434;BME280;57876;47.792;12.960;2023-06-22T11:56:48;96578.28;;;18.47;53.80
70434;BME280;57876;47.792;12.960;2023-06-22T11:59:12;96564.13;;;18.45;53.88
70434;BME280;57876;47.792;12.960;2023-06-22T12:01:37;96569.28;;;18.47;53.96
70434;BME280;57876;47.792;12.960;2023-06-22T12:04:04;96561.06;;;18.47;53.89
70434;BME280;57876;47.792;12.960;2023-06-22T12:06:29;96553.06;;;18.42;53.62
70434;BME280;57876;47.792;12.960;2023-06-22T12:08:54;96555.59;;;18.47;53.88
70434;BME280;57876;47.792;12.960;2023-06-22T12:11:18;96542.13;;;18.42;53.87
70434;BME280;57876;47.792;12.960;2023-06-22T12:13:43;96543.38;;;18.44;53.94
70434;BME280;57876;47.792;12.960;2023-06-22T12:16:07;96543.72;;;18.43;53.78
70434;BME280;57876;47.792;12.960;2023-06-22T12:18:32;96533.91;;;18.42;53.87
70434;BME280;57876;47.792;12.960;2023-06-22T12:20:57;96535.75;;;18.38;53.89
70434;BME280;57876;47.792;12.960;2023-06-22T12:23:21;96535.84;;;18.41;53.90
70434;BME280;57876;47.792;12.960;2023-06-22T12:25:45;96528.88;;;18.44;53.64
70434;BME280;57876;47.792;12.960;2023-06-22T12:28:10;96525.91;;;18.37;53.83
70434;BME280;57876;47.792;12.960;2023-06-22T12:30:34;96519.53;;;18.33;53.94
70434;BME280;57876;47.792;12.960;2023-06-22T12:32:59;96523.19;;;18.37;53.88
70434;BME280;57876;47.792;12.960;2023-06-22T12:35:24;96523.75;;;18.42;53.72
70434;BME280;57876;47.792;12.960;2023-06-22T12:37:48;96522.25;;;18.45;53.69
70434;BME280;57876;47.792;12.960;2023-06-22T12:40:13;96515.88;;;18.41;53.88
70434;BME280;57876;47.792;12.960;2023-06-22T12:42:40;96525.47;;;18.47;53.73
70434;BME280;57876;47.792;12.960;2023-06-22T12:45:05;96522.63;;;18.43;53.75